Aérodrome :
LOGIN :

S'inscrire | Disclaimer

   EN    FR    IT 

 










Légende :    VFR   VFR Marginal   IFR   IFR Intensif   IFR Très Intensif
Visi : 
Plafond : 
>= 8 km
>= 3000ft
5 à 8 km
1000 à 3000 ft
1500m à 5 km
500 à 1000 ft
800 à 1500m
200 à 500 ft
< 800m
< 200 ft
Symboles :   Orages  Brouillard  Fortes neiges  Fortes précipitations  Vent > 20 kt
SIGMETs :   Divers  Orages  Givrage  Turbulence  Onde Orograph.  Cendres Volcan.






- Altitude de l'aérodrome : 1276 ft
- Code IATA : STR


EDDS - Stuttgart

DERNIER METAR :
  • 221020Z 01005KT 310V070 9999 FEW020 SCT025 11/03 Q1022 NOSIG

METARs EXPIRÉS :
  • 220950Z VRB04KT 9999 FEW018 BKN022 10/04 Q1022 NOSIG
  • 220920Z 36005KT 320V090 9999 FEW016 BKN020 09/04 Q1022 NOSIG
  • 220850Z 36006KT 320V080 9999 FEW016 BKN018 09/04 Q1022 NOSIG
  • 220820Z 35008KT 320V040 9999 FEW015 BKN018 09/05 Q1021 NOSIG
  • 220750Z 36009KT 330V030 9999 FEW016 BKN020 09/05 Q1021 NOSIG

TAF TAF EDDS
Valide du 22 à 06h jusqu'au 23 à 06h UTC


220500Z 2206/2306 34006KT 9999 SCT045



MET'MAP, la Météo Aéronautique d'un coup d'oeil ! - Copyright ORBIFLY Décembre 2007 - Disclaimer

ORBIFLY MET'MAP TEAM :

Programmation & Développement : Alexandra Zaïnal
Sur une idée originale de : Baudouin d'Aumeries
Assistance à la programmation : Marc-Olivier Méhu
Soutien technique & logistique : Manuel Goepfert

Contact : metmap@orbifly.com




SOURCES & CREDITS :

   NOAA